This is the latest recevied weather packets stored in our database for station/object HB9BB-10. If no packets are shown the sender has not sent any weather packets the latest 1 day(s).
| Time | Temp. | Humidity | Pressure | Rain* | Wind** | Luminosity | Snow |
|---|---|---|---|---|---|---|---|
| 1778114992 | 18.33° C | 24% | 1026.8 hPa | - | - | - | - |
| 1778113616 | 18.89° C | 24% | 1026.8 hPa | - | - | - | - |
| 1778113612 | 18.89° C | 24% | 1026.8 hPa | - | - | - | - |
| 1778112232 | 18.89° C | 24% | 1026.7 hPa | - | - | - | - |
| 1778110857 | 18.89° C | 24% | 1026.8 hPa | - | - | - | - |
| 1778109476 | 18.89° C | 24% | 1026.9 hPa | - | - | - | - |
| 1778105336 | 19.44° C | 24% | 1026.7 hPa | - | - | - | - |
| 1778105336 | 19.44° C | 24% | 1026.7 hPa | - | - | - | - |
| 1778103956 | 19.44° C | 23% | 1026.5 hPa | - | - | - | - |
| 1778103956 | 19.44° C | 23% | 1026.5 hPa | - | - | - | - |
| 1778102576 | 20° C | 23% | 1026.4 hPa | - | - | - | - |
| 1778102571 | 20° C | 23% | 1026.4 hPa | - | - | - | - |
| 1778101191 | 20.56° C | 23% | 1026.3 hPa | - | - | - | - |
| 1778099811 | 23.89° C | 21% | 1026.3 hPa | - | - | - | - |
| 1778092915 | 20.56° C | 24% | 1025.5 hPa | - | - | - | - |
| 1778092915 | 20.56° C | 24% | 1025.5 hPa | - | - | - | - |
| 1778091535 | 20.56° C | 24% | 1025.2 hPa | - | - | - | - |
| 1778091535 | 20.56° C | 24% | 1025.2 hPa | - | - | - | - |
| 1778091530 | 20.56° C | 24% | 1025.2 hPa | - | - | - | - |
| 1778090155 | 20.56° C | 23% | 1025.1 hPa | - | - | - | - |
| 1778090150 | 20.56° C | 23% | 1025.1 hPa | - | - | - | - |
| 1778088775 | 21.11° C | 23% | 1025.1 hPa | - | - | - | - |
| 1778088770 | 21.11° C | 23% | 1025.1 hPa | - | - | - | - |
| 1778087390 | 21.11° C | 23% | 1024.9 hPa | - | - | - | - |
| 1778084634 | 21.11° C | 23% | 1024.5 hPa | - | - | - | - |
* Rain since midnight (hover to see other rain measurements)
** Current wind speed in m/s (hover to see current wind gust speed)